RJAK(METAR)
03/23 15:00
METAR RJAK 230600Z 29009KT 9999 FEW030 BKN180 BKN250 14/M07 Q1014
RMK 2CU030 5AC180 7CI250 A2994=
戻る
トップページへ戻る
IMOC Co,.Ltd.